createdAt,value
2022-08-11T00:00:37.678Z,98162.56
2022-08-11T00:03:09.643Z,98150.84
2022-08-11T00:05:52.027Z,98153.66
2022-08-11T00:08:27.843Z,98163.41
2022-08-11T00:11:01.163Z,98155.59
2022-08-11T00:13:37.043Z,98157.59
2022-08-11T00:16:11.183Z,98153.56
2022-08-11T00:18:43.641Z,98154.38
2022-08-11T00:21:12.063Z,98148.28
2022-08-11T00:23:44.618Z,98144.81
2022-08-11T00:26:13.425Z,98142.50
2022-08-11T00:28:41.767Z,98139.59
2022-08-11T00:31:11.514Z,98144.72
2022-08-11T00:33:44.672Z,98138.81
2022-08-11T00:36:16.512Z,98145.25
2022-08-11T00:38:45.694Z,98145.16
2022-08-11T00:41:59.132Z,98146.09
2022-08-11T00:45:18.279Z,98134.28
2022-08-11T00:48:07.803Z,98138.09
2022-08-11T00:51:09.068Z,98136.22
2022-08-11T00:54:23.720Z,98126.16
2022-08-11T00:57:36.942Z,98135.50
2022-08-11T01:00:23.429Z,98128.69
2022-08-11T01:03:39.167Z,98127.53
2022-08-11T01:06:33.036Z,98123.00
2022-08-11T01:09:37.690Z,98118.19
2022-08-11T01:12:44.142Z,98116.16
2022-08-11T01:19:03.118Z,98108.72
2022-08-11T01:22:00.783Z,98112.97
2022-08-11T02:04:36.604Z,98092.09
2022-08-11T02:11:18.182Z,98099.84
2022-08-11T02:14:12.619Z,98102.00
2022-08-11T02:17:00.646Z,98098.69
2022-08-11T02:20:10.929Z,98096.63
2022-08-11T02:24:03.793Z,98094.72
2022-08-11T02:26:23.483Z,98098.94
2022-08-11T02:29:18.003Z,98098.69
2022-08-11T02:32:33.879Z,98092.91
2022-08-11T02:35:22.911Z,98081.84
2022-08-11T02:38:14.281Z,98086.16
2022-08-11T02:41:31.210Z,98090.13
2022-08-11T02:44:24.772Z,98095.97
2022-08-11T02:47:15.081Z,98088.81
2022-08-11T02:50:09.371Z,98090.72
2022-08-11T02:53:03.851Z,98084.94
2022-08-11T02:55:48.826Z,98088.56
2022-08-11T02:59:20.346Z,98085.66
2022-08-11T03:02:04.598Z,98092.94
2022-08-11T03:04:49.909Z,98079.59
2022-08-11T03:07:46.117Z,98078.00
2022-08-11T03:11:26.625Z,98074.00
2022-08-11T03:14:44.070Z,98071.81
2022-08-11T03:17:24.838Z,98069.06
2022-08-11T03:20:24.150Z,98074.00
2022-08-11T03:23:19.407Z,98066.03
2022-08-11T03:25:55.793Z,98067.91
2022-08-11T03:28:37.539Z,98070.22
2022-08-11T03:31:19.299Z,98069.50
2022-08-11T03:34:07.312Z,98077.94
2022-08-11T03:37:06.797Z,98082.56
2022-08-11T03:40:13.674Z,98079.56
2022-08-11T03:43:09.356Z,98072.97
2022-08-11T03:45:49.992Z,98070.38
2022-08-11T03:48:54.792Z,98071.53
2022-08-11T03:51:56.469Z,98079.69
2022-08-11T03:55:08.563Z,98072.31
2022-08-11T03:58:41.841Z,98068.69
2022-08-11T04:01:53.234Z,98079.28
2022-08-11T04:08:39.357Z,98069.97
2022-08-11T04:40:51.272Z,98073.34
2022-08-11T04:50:13.443Z,98078.16
2022-08-11T04:53:27.368Z,98087.59
2022-08-11T04:56:29.547Z,98077.69
2022-08-11T04:59:52.268Z,98087.22
2022-08-11T05:02:52.588Z,98083.28
2022-08-11T05:05:56.219Z,98090.06
2022-08-11T05:08:54.339Z,98085.44
2022-08-11T05:11:31.807Z,98077.69
2022-08-11T05:14:52.149Z,98087.00
2022-08-11T05:18:06.663Z,98077.38
2022-08-11T05:21:05.122Z,98078.81
2022-08-11T05:23:54.272Z,98080.16
2022-08-11T05:26:46.567Z,98077.59
2022-08-11T05:29:57.818Z,98077.91
2022-08-11T05:32:47.259Z,98080.88
2022-08-11T05:36:00.395Z,98076.31
2022-08-11T05:38:28.068Z,98077.34
2022-08-11T05:41:15.371Z,98077.06
2022-08-11T05:44:21.174Z,98077.78
2022-08-11T05:47:08.847Z,98073.75
2022-08-11T05:49:55.546Z,98076.50
2022-08-11T05:52:46.806Z,98076.88
2022-08-11T05:55:34.460Z,98075.16
2022-08-11T05:58:07.262Z,98078.28
2022-08-11T06:00:43.403Z,98084.41
2022-08-11T06:03:11.068Z,98080.38
2022-08-11T06:05:43.895Z,98085.34
2022-08-11T06:08:12.668Z,98086.91
2022-08-11T06:10:44.284Z,98090.28
2022-08-11T06:13:16.102Z,98091.00
2022-08-11T06:15:50.811Z,98088.75
2022-08-11T06:18:19.056Z,98094.91
2022-08-11T06:20:55.026Z,98090.09
2022-08-11T06:23:23.930Z,98102.25
2022-08-11T06:25:52.840Z,98096.63
2022-08-11T06:28:32.704Z,98098.59
2022-08-11T06:31:00.565Z,98099.16
2022-08-11T06:33:48.136Z,98102.44
2022-08-11T06:36:31.558Z,98095.56
2022-08-11T06:40:09.235Z,98098.69
2022-08-11T06:42:57.167Z,98109.38
2022-08-11T06:45:42.412Z,98103.25
2022-08-11T06:48:17.489Z,98105.53
2022-08-11T06:51:12.824Z,98109.63
2022-08-11T06:54:04.233Z,98112.00
2022-08-11T06:57:28.283Z,98110.22
2022-08-11T07:00:06.073Z,98115.75
2022-08-11T07:02:52.571Z,98108.50
2022-08-11T07:05:45.683Z,98111.03
2022-08-11T07:09:17.935Z,98117.00
2022-08-11T07:12:49.119Z,98104.09
2022-08-11T07:16:11.010Z,98106.09
2022-08-11T07:18:53.613Z,98104.63
2022-08-11T07:22:00.989Z,98099.63
2022-08-11T07:24:59.415Z,98096.84
2022-08-11T07:27:56.011Z,98099.84
2022-08-11T07:30:25.055Z,98096.06
2022-08-11T07:32:54.916Z,98098.25
2022-08-11T07:35:50.044Z,98091.06
2022-08-11T07:38:25.291Z,98100.94
2022-08-11T07:40:52.859Z,98096.19
2022-08-11T07:43:19.768Z,98097.63
2022-08-11T07:46:05.356Z,98099.06
2022-08-11T07:48:53.275Z,98099.25
2022-08-11T07:51:40.149Z,98087.38
2022-08-11T07:54:16.310Z,98091.38
2022-08-11T07:56:55.193Z,98078.06
2022-08-11T08:00:03.739Z,98091.19
2022-08-11T08:02:51.059Z,98090.59
2022-08-11T08:05:37.210Z,98090.19
2022-08-11T08:08:27.995Z,98076.19
2022-08-11T08:11:15.220Z,98086.97
2022-08-11T08:14:04.380Z,98078.25
2022-08-11T08:16:50.053Z,98080.63
2022-08-11T08:19:20.724Z,98079.50
2022-08-11T08:21:48.456Z,98085.34
2022-08-11T08:24:16.279Z,98082.44
2022-08-11T08:26:59.528Z,98075.56
2022-08-11T08:29:53.240Z,98088.50
2022-08-11T08:32:21.975Z,98081.06
2022-08-11T08:34:59.799Z,98086.31
2022-08-11T08:37:45.756Z,98089.81
2022-08-11T08:40:19.151Z,98084.53
2022-08-11T08:43:10.617Z,98087.81
2022-08-11T08:45:39.589Z,98082.72
2022-08-11T08:48:13.956Z,98082.91
2022-08-11T08:51:08.071Z,98077.44
2022-08-11T08:53:39.141Z,98079.38
2022-08-11T08:56:25.203Z,98085.03
2022-08-11T08:58:52.664Z,98077.59
2022-08-11T09:01:22.439Z,98080.47
2022-08-11T09:04:05.151Z,98077.16
2022-08-11T09:06:40.567Z,98079.59
2022-08-11T09:09:12.201Z,98073.66
2022-08-11T09:11:55.465Z,98073.66
2022-08-11T09:14:50.273Z,98074.38
2022-08-11T09:17:21.637Z,98075.38
2022-08-11T09:19:58.715Z,98074.91
2022-08-11T09:22:46.101Z,98077.00
2022-08-11T09:25:35.037Z,98082.66
2022-08-11T09:28:05.025Z,98069.72
2022-08-11T09:30:33.111Z,98070.69
2022-08-11T09:33:02.370Z,98073.56
2022-08-11T09:35:34.582Z,98082.28
2022-08-11T09:38:20.021Z,98069.88
2022-08-11T09:40:56.356Z,98066.53
2022-08-11T09:43:44.054Z,98065.19
2022-08-11T09:46:19.324Z,98054.59
2022-08-11T09:48:48.580Z,98060.88
2022-08-11T09:51:17.296Z,98054.59
2022-08-11T09:53:47.088Z,98055.88
2022-08-11T09:56:49.408Z,98051.84
2022-08-11T09:59:20.535Z,98050.19
2022-08-11T10:01:59.028Z,98061.22
2022-08-11T10:04:41.316Z,98051.53
2022-08-11T10:07:10.895Z,98046.84
2022-08-11T10:10:02.359Z,98046.59
2022-08-11T10:12:40.922Z,98049.22
2022-08-11T10:15:34.833Z,98044.47
2022-08-11T10:18:26.977Z,98046.03
2022-08-11T10:21:00.233Z,98041.28
2022-08-11T10:24:00.381Z,98043.84
2022-08-11T10:27:11.593Z,98033.75
2022-08-11T10:29:59.705Z,98035.16
2022-08-11T10:32:57.365Z,98038.59
2022-08-11T10:35:28.880Z,98027.66
2022-08-11T10:38:06.806Z,98029.47
2022-08-11T10:40:39.009Z,98023.75
2022-08-11T10:43:10.712Z,98030.69
2022-08-11T10:45:59.127Z,98034.34
2022-08-11T10:48:30.517Z,98024.84
2022-08-11T10:51:50.523Z,98022.16
2022-08-11T10:54:24.462Z,98026.44
2022-08-11T10:57:12.862Z,98025.25
2022-08-11T10:59:43.291Z,98017.72
2022-08-11T11:02:14.860Z,98012.28
2022-08-11T11:05:15.404Z,98010.97
2022-08-11T11:07:57.085Z,98018.75
2022-08-11T11:10:25.383Z,98014.03
2022-08-11T11:13:15.351Z,98002.22
2022-08-11T11:16:05.148Z,98006.59
2022-08-11T11:18:36.680Z,98002.91
2022-08-11T11:21:07.623Z,97985.94
2022-08-11T11:24:14.777Z,97991.28
2022-08-11T11:27:04.874Z,97991.66
2022-08-11T11:29:49.859Z,97990.00
2022-08-11T11:33:05.686Z,97967.94
2022-08-11T11:35:47.164Z,97966.06
2022-08-11T11:38:14.262Z,97971.75
2022-08-11T11:40:44.530Z,97964.16
2022-08-11T11:43:14.210Z,97968.41
2022-08-11T11:45:42.199Z,97966.41
2022-08-11T11:48:09.484Z,97963.03
2022-08-11T11:50:39.292Z,97972.34
2022-08-11T11:53:09.684Z,97959.88
2022-08-11T11:55:40.022Z,97952.41
2022-08-11T11:58:26.415Z,97958.63
2022-08-11T12:01:15.493Z,97955.97
2022-08-11T12:03:45.563Z,97952.69
2022-08-11T12:06:14.361Z,97947.03
2022-08-11T12:08:43.402Z,97956.31
2022-08-11T12:11:31.435Z,97951.88
2022-08-11T12:14:02.368Z,97950.63
2022-08-11T12:16:33.300Z,97938.06
2022-08-11T12:19:08.039Z,97938.78
2022-08-11T12:21:44.753Z,97932.75
2022-08-11T12:24:37.740Z,97931.31
2022-08-11T12:27:28.577Z,97926.50
2022-08-11T12:30:05.954Z,97919.66
2022-08-11T12:32:35.192Z,97920.19
2022-08-11T12:35:02.310Z,97913.34
2022-08-11T12:37:32.820Z,97921.34
2022-08-11T12:40:49.983Z,97912.41
2022-08-11T12:43:41.451Z,97909.50
2022-08-11T12:46:14.300Z,97912.84
2022-08-11T12:49:11.120Z,97907.56
2022-08-11T12:52:00.969Z,97904.41
2022-08-11T12:55:13.001Z,97907.19
2022-08-11T12:58:03.968Z,97904.53
2022-08-11T13:00:50.510Z,97902.38
2022-08-11T13:03:38.922Z,97902.38
2022-08-11T13:06:06.754Z,97894.53
2022-08-11T13:08:37.916Z,97895.94
2022-08-11T13:11:23.807Z,97894.28
2022-08-11T13:13:57.545Z,97895.72
2022-08-11T13:16:57.574Z,97891.53
2022-08-11T13:19:25.213Z,97892.25
2022-08-11T13:21:53.311Z,97883.94
2022-08-11T13:24:21.759Z,97886.84
2022-08-11T13:26:50.876Z,97886.06
2022-08-11T13:29:28.835Z,97886.84
2022-08-11T13:32:00.807Z,97883.50
2022-08-11T13:34:31.274Z,97873.09
2022-08-11T13:37:01.052Z,97882.38
2022-08-11T13:39:32.189Z,97881.94
2022-08-11T13:42:00.847Z,97880.09
2022-08-11T13:44:30.365Z,97880.09
2022-08-11T13:47:07.449Z,97875.63
2022-08-11T13:49:39.734Z,97867.91
2022-08-11T13:52:13.052Z,97868.78
2022-08-11T13:54:41.614Z,97867.13
2022-08-11T13:58:05.987Z,97870.50
2022-08-11T14:00:23.597Z,97864.78
2022-08-11T14:02:56.755Z,97865.59
2022-08-11T14:05:28.630Z,97859.34
2022-08-11T14:07:59.852Z,97859.94
2022-08-11T14:10:29.591Z,97853.53
2022-08-11T14:13:42.761Z,97857.69
2022-08-11T14:16:19.787Z,97847.03
2022-08-11T14:18:51.528Z,97848.66
2022-08-11T14:21:40.172Z,97843.13
2022-08-11T14:24:07.823Z,97842.75
2022-08-11T14:26:38.972Z,97844.16
2022-08-11T14:29:17.832Z,97844.84
2022-08-11T14:31:57.498Z,97846.44
2022-08-11T14:34:26.964Z,97851.00
2022-08-11T14:36:56.836Z,97840.56
2022-08-11T14:39:29.082Z,97837.19
2022-08-11T14:42:15.630Z,97849.09
2022-08-11T14:45:23.383Z,97837.91
2022-08-11T14:47:53.176Z,97830.47
2022-08-11T14:50:25.879Z,97832.56
2022-08-11T14:52:59.884Z,97839.94
2022-08-11T14:55:50.723Z,97835.06
2022-08-11T14:58:19.850Z,97834.94
2022-08-11T15:00:50.045Z,97840.34
2022-08-11T15:03:17.924Z,97831.19
2022-08-11T15:05:57.089Z,97831.97
2022-08-11T15:08:51.951Z,97824.94
2022-08-11T15:11:40.210Z,97824.16
2022-08-11T15:14:08.879Z,97838.22
2022-08-11T15:16:58.787Z,97828.91
2022-08-11T15:19:26.163Z,97830.94
2022-08-11T15:22:11.418Z,97821.97
2022-08-11T15:24:38.601Z,97830.56
2022-08-11T15:27:30.211Z,97823.75
2022-08-11T15:30:20.945Z,97825.03
2022-08-11T15:33:23.229Z,97818.91
2022-08-11T15:36:09.973Z,97815.06
2022-08-11T15:38:42.526Z,97821.13
2022-08-11T15:41:32.063Z,97815.94
2022-08-11T15:44:20.843Z,97804.97
2022-08-11T15:47:09.125Z,97809.75
2022-08-11T15:50:11.813Z,97810.25
2022-08-11T15:52:31.847Z,97806.75
2022-08-11T15:55:02.211Z,97801.69
2022-08-11T15:57:49.393Z,97801.16
2022-08-11T16:00:35.738Z,97801.25
2022-08-11T16:03:24.269Z,97795.69
2022-08-11T16:06:13.491Z,97790.78
2022-08-11T16:08:43.263Z,97792.75
2022-08-11T16:11:12.109Z,97794.13
2022-08-11T16:13:57.847Z,97794.78
2022-08-11T16:16:25.628Z,97796.16
2022-08-11T16:18:56.629Z,97799.31
2022-08-11T16:21:35.181Z,97792.97
2022-08-11T16:24:09.635Z,97791.97
2022-08-11T16:27:09.615Z,97789.78
2022-08-11T16:29:44.572Z,97792.34
2022-08-11T16:32:18.762Z,97794.84
2022-08-11T16:35:07.470Z,97787.78
2022-08-11T16:38:08.815Z,97793.31
2022-08-11T16:40:36.946Z,97791.00
2022-08-11T16:43:36.963Z,97790.25
2022-08-11T16:46:24.446Z,97787.13
2022-08-11T16:48:55.181Z,97782.75
2022-08-11T16:51:23.052Z,97793.09
2022-08-11T16:54:04.316Z,97788.03
2022-08-11T16:56:53.153Z,97792.03
2022-08-11T16:59:45.596Z,97793.28
2022-08-11T17:02:35.607Z,97792.94
2022-08-11T17:05:26.219Z,97792.69
2022-08-11T17:08:13.367Z,97795.25
2022-08-11T17:11:11.712Z,97787.25
2022-08-11T17:13:57.070Z,97796.16
2022-08-11T17:16:39.906Z,97786.28
2022-08-11T17:20:41.399Z,97788.72
2022-08-11T17:22:28.648Z,97791.31
2022-08-11T17:24:57.175Z,97793.13
2022-08-11T17:27:27.568Z,97798.00
2022-08-11T17:29:58.184Z,97800.56
2022-08-11T17:33:08.251Z,97796.72
2022-08-11T17:35:41.543Z,97795.88
2022-08-11T17:38:15.897Z,97795.03
2022-08-11T17:41:10.088Z,97792.72
2022-08-11T17:44:04.695Z,97798.59
2022-08-11T17:46:50.674Z,97803.31
2022-08-11T17:49:20.409Z,97804.44
2022-08-11T17:52:07.703Z,97800.22
2022-08-11T17:54:55.483Z,97811.16
2022-08-11T17:57:47.054Z,97823.44
2022-08-11T18:00:15.022Z,97812.78
2022-08-11T18:03:03.592Z,97823.69
2022-08-11T18:05:34.087Z,97823.53
2022-08-11T18:08:25.891Z,97817.03
2022-08-11T18:11:13.151Z,97813.22
2022-08-11T18:14:10.495Z,97817.03
2022-08-11T18:16:56.181Z,97824.47
2022-08-11T18:19:41.346Z,97822.88
2022-08-11T18:22:36.582Z,97826.22
2022-08-11T18:25:27.475Z,97830.78
2022-08-11T18:28:14.319Z,97832.09
2022-08-11T18:31:04.639Z,97825.63
2022-08-11T18:34:08.159Z,97828.19
2022-08-11T18:36:59.279Z,97828.75
2022-08-11T18:39:56.052Z,97835.47
2022-08-11T18:42:43.653Z,97838.66
2022-08-11T18:45:39.978Z,97841.91
2022-08-11T18:48:37.538Z,97845.88
2022-08-11T18:51:30.111Z,97843.03
2022-08-11T18:54:25.899Z,97839.44
2022-08-11T18:57:12.876Z,97846.97
2022-08-11T19:00:02.379Z,97847.53
2022-08-11T19:02:50.776Z,97851.50
2022-08-11T19:06:32.420Z,97860.38
2022-08-11T19:08:50.283Z,97858.06
2022-08-11T19:11:42.481Z,97854.47
2022-08-11T19:14:31.317Z,97857.72
2022-08-11T19:17:43.996Z,97855.28
2022-08-11T19:20:30.148Z,97854.22
2022-08-11T19:23:17.027Z,97860.31
2022-08-11T19:26:05.038Z,97860.59
2022-08-11T19:28:52.921Z,97868.47
2022-08-11T19:31:42.491Z,97876.47
2022-08-11T19:34:33.479Z,97878.41
2022-08-11T19:37:23.726Z,97872.69
2022-08-11T19:40:12.649Z,97876.88
2022-08-11T19:43:00.468Z,97868.38
2022-08-11T19:45:52.110Z,97876.63
2022-08-11T19:48:40.982Z,97867.38
2022-08-11T19:51:28.411Z,97873.41
2022-08-11T19:54:15.069Z,97879.38
2022-08-11T19:57:01.493Z,97876.34
2022-08-11T19:59:48.644Z,97873.97
2022-08-11T20:02:34.221Z,97881.19
2022-08-11T20:05:20.018Z,97884.41
2022-08-11T20:08:06.698Z,97877.94
2022-08-11T20:10:54.790Z,97884.63
2022-08-11T20:13:42.548Z,97885.25
2022-08-11T20:16:30.847Z,97884.25
2022-08-11T20:19:17.160Z,97883.44
2022-08-11T20:22:08.225Z,97899.19
2022-08-11T20:24:57.186Z,97881.50
2022-08-11T20:27:43.597Z,97881.94
2022-08-11T20:30:29.452Z,97890.06
2022-08-11T20:33:15.344Z,97877.31
2022-08-11T20:36:00.807Z,97886.81
2022-08-11T20:38:49.720Z,97884.56
2022-08-11T20:41:58.907Z,97891.44
2022-08-11T20:44:43.606Z,97898.09
2022-08-11T20:47:30.624Z,97895.03
2022-08-11T20:50:19.452Z,97894.81
2022-08-11T20:53:07.044Z,97884.22
2022-08-11T20:55:53.663Z,97890.41
2022-08-11T20:59:13.460Z,97888.84
2022-08-11T21:01:47.232Z,97894.19
2022-08-11T21:04:37.780Z,97882.91
2022-08-11T21:07:41.366Z,97889.78
2022-08-11T21:10:29.192Z,97893.88
2022-08-11T21:13:26.554Z,97892.34
2022-08-11T21:16:26.128Z,97894.91
2022-08-11T21:20:00.534Z,97889.28
2022-08-11T21:22:59.314Z,97900.16
2022-08-11T21:26:01.303Z,97899.00
2022-08-11T21:28:50.121Z,97896.44
2022-08-11T21:31:37.431Z,97896.22
2022-08-11T21:34:22.950Z,97911.31
2022-08-11T21:37:10.957Z,97895.91
2022-08-11T21:39:59.157Z,97899.91
2022-08-11T21:42:46.676Z,97900.06
2022-08-11T21:45:33.228Z,97900.38
2022-08-11T21:48:19.852Z,97908.97
2022-08-11T21:51:04.907Z,97908.59
2022-08-11T21:53:50.891Z,97906.13
2022-08-11T21:56:37.366Z,97903.13
2022-08-11T21:59:24.081Z,97904.56
2022-08-11T22:02:12.917Z,97903.25
2022-08-11T22:04:59.173Z,97902.75
2022-08-11T22:07:44.857Z,97908.50
2022-08-11T22:10:42.474Z,97909.94
2022-08-11T22:13:30.796Z,97901.50
2022-08-11T22:16:17.780Z,97900.09
2022-08-11T22:19:05.360Z,97905.19
2022-08-11T22:21:57.029Z,97912.28
2022-08-11T22:24:51.437Z,97909.06
2022-08-11T22:27:36.826Z,97908.00
2022-08-11T22:30:25.259Z,97903.78
2022-08-11T22:33:11.699Z,97901.63
2022-08-11T22:36:00.994Z,97901.63
2022-08-11T22:38:47.345Z,97907.16
2022-08-11T22:41:32.685Z,97898.13
2022-08-11T22:44:17.838Z,97902.72
2022-08-11T22:47:04.144Z,97900.34
2022-08-11T22:49:56.219Z,97909.63
2022-08-11T22:52:44.386Z,97917.47
2022-08-11T22:55:31.232Z,97902.69
2022-08-11T22:58:17.170Z,97907.13
2022-08-11T23:01:02.971Z,97904.00
2022-08-11T23:03:50.112Z,97894.63
2022-08-11T23:06:37.528Z,97895.34
2022-08-11T23:09:23.748Z,97891.50
2022-08-11T23:12:10.815Z,97888.59
2022-08-11T23:14:58.459Z,97892.81
2022-08-11T23:17:45.203Z,97889.56
2022-08-11T23:20:37.758Z,97890.09
2022-08-11T23:23:38.326Z,97884.81
2022-08-11T23:26:25.144Z,97887.56
2022-08-11T23:29:12.936Z,97889.00
2022-08-11T23:31:58.373Z,97891.19
2022-08-11T23:35:04.342Z,97897.06
2022-08-11T23:37:59.863Z,97895.13
2022-08-11T23:40:45.428Z,97893.78
2022-08-11T23:43:39.383Z,97889.47
2022-08-11T23:46:24.702Z,97887.06
2022-08-11T23:49:14.127Z,97886.34
2022-08-11T23:52:00.365Z,97891.03
2022-08-11T23:54:46.424Z,97879.03
2022-08-11T23:57:31.869Z,97875.66
